Time,TemperatureF,DewpointF,PressureIn,WindDirection,WindDirectionDegrees,WindSpeedMPH,WindSpeedGustMPH,Humidity,HourlyPrecipIn,Conditions,Clouds,dailyrainin,SolarRadiationWatts/m^2,SoftwareType,DateUTC
2013-06-09 00:00:00,68.4,59.0,29.95,ESE,107,0.0,0.0,72,0.00,CLR,,0.00,0.0,WeatherDisplay:10.37,2013-06-09 05:00:00,
2013-06-09 00:10:00,68.1,59.1,29.95,ESE,107,0.0,1.0,73,0.00,CLR,,0.00,0.0,WeatherDisplay:10.37,2013-06-09 05:10:00,
2013-06-09 00:20:00,68.0,59.1,29.95,ESE,107,0.0,1.0,73,0.00,CLR,,0.00,0.0,WeatherDisplay:10.37,2013-06-09 05:20:00,
2013-06-09 00:30:00,68.0,59.4,29.95,East,95,1.0,2.0,74,0.00,CLR,,0.00,0.0,WeatherDisplay:10.37,2013-06-09 05:30:00,
2013-06-09 00:40:00,67.9,59.3,29.95,East,95,0.0,1.0,74,0.00,CLR,,0.00,0.0,WeatherDisplay:10.37,2013-06-09 05:40:00,
2013-06-09 00:50:00,67.8,59.2,29.96,East,95,0.0,0.0,74,0.00,CLR,,0.00,0.0,WeatherDisplay:10.37,2013-06-09 05:50:00,
2013-06-09 01:00:00,67.5,59.3,29.95,East,95,0.0,1.0,75,0.00,CLR,,0.00,0.0,WeatherDisplay:10.37,2013-06-09 06:00:00,
2013-06-09 01:10:00,67.7,59.5,29.95,ESE,116,1.0,3.0,75,0.00,CLR,,0.00,0.0,WeatherDisplay:10.37,2013-06-09 06:10:00,
2013-06-09 01:20:00,67.6,59.7,29.95,ESE,119,0.0,2.0,76,0.00,CLR,,0.00,0.0,WeatherDisplay:10.37,2013-06-09 06:20:00,
2013-06-09 01:30:00,67.3,59.5,29.95,SE,126,0.0,3.0,76,0.00,CLR,,0.00,0.0,WeatherDisplay:10.37,2013-06-09 06:30:00,
2013-06-09 01:40:00,66.8,59.8,29.95,SE,132,0.0,1.0,78,0.00,CLR,,0.00,0.0,WeatherDisplay:10.37,2013-06-09 06:40:00,
2013-06-09 01:50:00,66.7,59.3,29.95,SE,125,0.0,2.0,77,0.00,CLR,,0.00,0.0,WeatherDisplay:10.37,2013-06-09 06:50:00,
2013-06-09 02:00:00,67.2,59.4,29.95,ESE,116,1.0,2.0,76,0.00,CLR,,0.00,0.0,WeatherDisplay:10.37,2013-06-09 07:00:00,
2013-06-09 02:10:00,67.2,59.0,29.95,ESE,120,1.0,2.0,75,0.00,CLR,,0.00,0.0,WeatherDisplay:10.37,2013-06-09 07:10:00,
2013-06-09 02:20:00,66.9,59.1,29.95,ESE,117,1.0,3.0,76,0.00,SCT,,0.00,0.0,WeatherDisplay:10.37,2013-06-09 07:20:00,
2013-06-09 02:30:00,66.8,58.6,29.94,ESE,115,0.0,3.0,75,0.00,SCT,,0.00,0.0,WeatherDisplay:10.37,2013-06-09 07:30:00,
2013-06-09 02:40:00,66.7,58.5,29.94,ESE,115,0.0,2.0,75,0.00,BKN,,0.00,0.0,WeatherDisplay:10.37,2013-06-09 07:40:00,
2013-06-09 02:50:00,66.7,58.5,29.94,ESE,115,0.0,3.0,75,0.00,BKN,,0.00,0.0,WeatherDisplay:10.37,2013-06-09 07:50:00,
2013-06-09 03:00:00,66.3,58.5,29.94,ESE,114,0.0,1.0,76,0.00,OVC,,0.00,0.0,WeatherDisplay:10.37,2013-06-09 08:00:00,
2013-06-09 03:10:00,66.3,58.1,29.94,ESE,113,1.0,1.0,75,0.00,OVC,,0.00,0.0,WeatherDisplay:10.37,2013-06-09 08:10:00,
2013-06-09 03:20:00,66.4,58.6,29.94,ESE,109,0.0,2.0,76,0.00,OVC,,0.00,0.0,WeatherDisplay:10.37,2013-06-09 08:20:00,
2013-06-09 03:30:00,66.7,58.5,29.94,ESE,113,1.0,2.0,75,0.00,OVC,,0.00,0.0,WeatherDisplay:10.37,2013-06-09 08:30:00,
2013-06-09 03:40:00,66.9,58.7,29.94,ESE,115,1.0,2.0,75,0.00,OVC,,0.00,0.0,WeatherDisplay:10.37,2013-06-09 08:40:00,
2013-06-09 03:50:00,67.0,58.8,29.94,ESE,118,1.0,4.0,75,0.00,OVC,,0.00,0.0,WeatherDisplay:10.37,2013-06-09 08:50:00,
2013-06-09 04:00:00,67.0,58.8,29.94,ESE,116,1.0,2.0,75,0.00,OVC,,0.00,0.0,WeatherDisplay:10.37,2013-06-09 09:00:00,
2013-06-09 04:10:00,67.1,58.9,29.93,ESE,116,0.0,2.0,75,0.00,OVC,,0.00,0.0,WeatherDisplay:10.37,2013-06-09 09:10:00,
2013-06-09 04:20:00,67.1,58.9,29.93,ESE,110,0.0,1.0,75,0.00,OVC,,0.00,0.0,WeatherDisplay:10.37,2013-06-09 09:20:00,
2013-06-09 04:30:00,67.0,58.8,29.93,ESE,110,0.0,1.0,75,0.00,OVC,,0.00,0.0,WeatherDisplay:10.37,2013-06-09 09:30:00,
2013-06-09 04:40:00,67.1,58.9,29.93,ESE,110,0.0,1.0,75,0.00,OVC,,0.00,0.0,WeatherDisplay:10.37,2013-06-09 09:40:00,
2013-06-09 04:50:00,67.1,59.3,29.93,ESE,119,0.0,1.0,76,0.00,OVC,,0.00,0.0,WeatherDisplay:10.37,2013-06-09 09:50:00,
2013-06-09 05:00:00,67.0,59.5,29.93,ESE,120,1.0,2.0,77,0.00,OVC,,0.00,0.0,WeatherDisplay:10.37,2013-06-09 10:00:00,
2013-06-09 05:10:00,66.9,59.9,29.92,ESE,115,0.0,2.0,78,0.00,OVC,,0.00,0.0,WeatherDisplay:10.37,2013-06-09 10:10:00,
2013-06-09 05:20:00,67.0,59.9,29.92,ESE,122,0.0,2.0,78,0.00,OVC,,0.00,0.0,WeatherDisplay:10.37,2013-06-09 10:20:00,
2013-06-09 05:30:00,67.0,59.9,29.92,ESE,116,0.0,1.0,78,0.00,OVC,,0.00,0.0,WeatherDisplay:10.37,2013-06-09 10:30:00,
2013-06-09 05:40:00,67.1,60.4,29.92,East,98,0.0,1.0,79,0.00,OVC,,0.00,0.0,WeatherDisplay:10.37,2013-06-09 10:40:00,
2013-06-09 05:50:00,67.1,60.4,29.92,ESE,115,0.0,2.0,79,0.00,OVC,,0.00,0.0,WeatherDisplay:10.37,2013-06-09 10:50:00,
2013-06-09 06:00:00,66.9,60.9,29.92,SE,139,0.0,2.0,81,0.00,OVC,,0.00,0.0,WeatherDisplay:10.37,2013-06-09 11:00:00,
2013-06-09 06:10:00,67.0,61.0,29.93,ESE,116,0.0,2.0,81,0.00,OVC,,0.00,0.0,WeatherDisplay:10.37,2013-06-09 11:10:00,
2013-06-09 06:20:00,67.2,61.2,29.92,SE,127,1.0,3.0,81,0.00,OVC,,0.00,0.0,WeatherDisplay:10.37,2013-06-09 11:20:00,
2013-06-09 06:30:00,67.5,61.5,29.93,SE,137,0.0,2.0,81,0.00,OVC,,0.00,0.0,WeatherDisplay:10.37,2013-06-09 11:30:00,
2013-06-09 06:40:00,67.6,61.6,29.93,SSE,163,1.0,3.0,81,0.00,OVC,,0.00,0.0,WeatherDisplay:10.37,2013-06-09 11:40:00,
2013-06-09 06:50:00,67.5,61.5,29.93,SSW,204,1.0,4.0,81,0.00,OVC,,0.00,0.0,WeatherDisplay:10.37,2013-06-09 11:50:00,
2013-06-09 07:00:00,67.6,61.6,29.92,SSE,152,1.0,3.0,81,0.00,OVC,,0.00,0.0,WeatherDisplay:10.37,2013-06-09 12:00:00,
2013-06-09 07:10:00,67.1,61.4,29.92,South,174,1.0,4.0,82,0.00,OVC,,0.00,0.0,WeatherDisplay:10.37,2013-06-09 12:10:00,
2013-06-09 07:20:00,66.4,61.7,29.91,SE,139,0.0,4.0,85,0.02,RA,,0.02,0.0,WeatherDisplay:10.37,2013-06-09 12:20:00,
2013-06-09 07:30:00,65.6,62.0,29.91,SSE,156,1.0,5.0,88,0.01,RA,,0.03,0.0,WeatherDisplay:10.37,2013-06-09 12:30:00,
2013-06-09 07:40:00,65.5,62.2,29.91,SSW,207,0.0,2.0,89,0.00,BKN,,0.03,0.0,WeatherDisplay:10.37,2013-06-09 12:40:00,
2013-06-09 07:50:00,65.8,62.8,29.91,SW,219,0.0,1.0,90,0.00,BKN,,0.03,0.0,WeatherDisplay:10.37,2013-06-09 12:50:00,
2013-06-09 08:00:00,66.0,63.0,29.92,SSW,208,1.0,3.0,90,0.00,BKN,,0.03,0.0,WeatherDisplay:10.37,2013-06-09 13:00:00,
2013-06-09 08:10:00,66.3,62.9,29.92,SW,235,1.0,3.0,89,0.00,BKN,,0.03,0.0,WeatherDisplay:10.37,2013-06-09 13:10:00,
2013-06-09 08:20:00,66.7,63.1,29.92,West,273,0.0,1.0,88,0.00,BKN,,0.03,0.0,WeatherDisplay:10.37,2013-06-09 13:20:00,
2013-06-09 08:30:00,67.4,63.8,29.92,WSW,256,1.0,2.0,88,0.00,BKN,,0.03,0.0,WeatherDisplay:10.37,2013-06-09 13:30:00,
2013-06-09 08:40:00,68.7,64.3,29.92,East,89,3.0,6.0,86,0.00,BKN,,0.03,0.0,WeatherDisplay:10.37,2013-06-09 13:40:00,
2013-06-09 08:50:00,70.2,65.4,29.92,ESE,113,2.0,6.0,85,0.00,BKN,,0.03,0.0,WeatherDisplay:10.37,2013-06-09 13:50:00,
2013-06-09 09:00:00,71.0,65.6,29.92,ESE,115,2.0,8.0,83,0.00,BKN,,0.03,0.0,WeatherDisplay:10.37,2013-06-09 14:00:00,
2013-06-09 09:10:00,71.5,66.1,29.92,SE,141,1.0,6.0,83,0.00,BKN,,0.03,0.0,WeatherDisplay:10.37,2013-06-09 14:10:00,
2013-06-09 09:20:00,71.2,65.4,29.92,ESE,118,3.0,8.0,82,0.00,BKN,,0.03,0.0,WeatherDisplay:10.37,2013-06-09 14:20:00,
2013-06-09 09:30:00,71.4,66.3,29.92,SE,131,1.0,4.0,84,0.00,BKN,,0.03,0.0,WeatherDisplay:10.37,2013-06-09 14:30:00,
2013-06-09 09:40:00,72.0,66.2,29.92,SE,130,2.0,6.0,82,0.00,BKN,,0.03,0.0,WeatherDisplay:10.37,2013-06-09 14:40:00,
2013-06-09 09:50:00,72.6,66.7,29.92,SE,140,3.0,9.0,82,0.00,BKN,,0.03,0.0,WeatherDisplay:10.37,2013-06-09 14:50:00,
2013-06-09 10:00:00,73.8,67.6,29.92,SSE,150,2.0,9.0,81,0.00,OVC,,0.03,0.0,WeatherDisplay:10.37,2013-06-09 15:00:00,
2013-06-09 10:10:00,74.8,67.8,29.91,South,184,3.0,8.0,79,0.00,OVC,,0.03,0.0,WeatherDisplay:10.37,2013-06-09 15:10:00,
2013-06-09 10:20:00,75.4,68.5,29.91,SSW,195,2.0,9.0,79,0.00,OVC,,0.03,0.0,WeatherDisplay:10.37,2013-06-09 15:20:00,
2013-06-09 10:30:00,74.3,67.4,29.91,SSE,167,2.0,13.0,79,0.00,OVC,,0.03,0.0,WeatherDisplay:10.37,2013-06-09 15:30:00,
2013-06-09 10:40:00,73.9,67.3,29.91,South,174,1.0,8.0,80,0.00,BKN,,0.03,0.0,WeatherDisplay:10.37,2013-06-09 15:40:00,
2013-06-09 10:50:00,73.8,67.9,29.91,SSE,165,2.0,7.0,82,0.00,OVC,,0.03,0.0,WeatherDisplay:10.37,2013-06-09 15:50:00,
2013-06-09 11:00:00,73.9,68.4,29.91,SSW,209,2.0,8.0,83,0.00,OVC,,0.03,0.0,WeatherDisplay:10.37,2013-06-09 16:00:00,
2013-06-09 11:10:00,74.6,68.7,29.91,SSW,197,6.0,12.0,82,0.00,BKN,,0.03,0.0,WeatherDisplay:10.37,2013-06-09 16:10:00,
2013-06-09 11:20:00,74.4,68.9,29.91,South,179,3.0,9.0,83,0.00,BKN,,0.03,0.0,WeatherDisplay:10.37,2013-06-09 16:20:00,
2013-06-09 11:30:00,74.8,69.3,29.91,SSW,196,3.0,9.0,83,0.00,BKN,,0.03,0.0,WeatherDisplay:10.37,2013-06-09 16:30:00,
2013-06-09 11:40:00,76.2,70.0,29.90,SSE,160,3.0,12.0,81,0.00,BKN,,0.03,0.0,WeatherDisplay:10.37,2013-06-09 16:40:00,
2013-06-09 11:50:00,77.0,70.4,29.90,SW,218,3.0,12.0,80,0.00,BKN,,0.03,0.0,WeatherDisplay:10.37,2013-06-09 16:50:00,
2013-06-09 12:00:00,76.9,69.9,29.90,SSE,166,5.0,8.0,79,0.00,BKN,,0.03,0.0,WeatherDisplay:10.37,2013-06-09 17:00:00,
2013-06-09 12:10:00,78.7,71.2,29.89,SSE,151,2.0,8.0,78,0.00,BKN,,0.03,0.0,WeatherDisplay:10.37,2013-06-09 17:10:00,
2013-06-09 12:20:00,79.4,70.8,29.88,SSW,195,5.0,9.0,75,0.00,BKN,,0.03,0.0,WeatherDisplay:10.37,2013-06-09 17:20:00,
2013-06-09 12:30:00,79.6,71.8,29.88,SSW,193,3.0,10.0,77,0.00,BKN,,0.03,0.0,WeatherDisplay:10.37,2013-06-09 17:30:00,
2013-06-09 12:40:00,79.6,71.0,29.87,South,176,5.0,10.0,75,0.00,BKN,,0.03,0.0,WeatherDisplay:10.37,2013-06-09 17:40:00,
2013-06-09 12:50:00,80.3,70.8,29.86,South,176,5.0,8.0,73,0.00,BKN,,0.03,0.0,WeatherDisplay:10.37,2013-06-09 17:50:00,
2013-06-09 13:00:00,80.2,71.2,29.86,South,183,3.0,9.0,74,0.00,BKN,,0.03,0.0,WeatherDisplay:10.37,2013-06-09 18:00:00,
2013-06-09 13:10:00,80.9,70.6,29.85,South,188,5.0,10.0,71,0.00,BKN,,0.03,0.0,WeatherDisplay:10.37,2013-06-09 18:10:00,
2013-06-09 13:20:00,82.1,71.8,29.84,SSW,197,3.0,12.0,71,0.00,OVC,,0.03,0.0,WeatherDisplay:10.37,2013-06-09 18:20:00,
2013-06-09 13:30:00,82.6,71.4,29.83,SSW,192,2.0,8.0,69,0.00,OVC,,0.03,0.0,WeatherDisplay:10.37,2013-06-09 18:30:00,
2013-06-09 13:40:00,82.5,70.9,29.83,SSW,195,5.0,12.0,68,0.00,OVC,,0.03,0.0,WeatherDisplay:10.37,2013-06-09 18:40:00,
2013-06-09 13:50:00,83.2,71.1,29.82,SSW,201,5.0,12.0,67,0.00,OVC,,0.03,0.0,WeatherDisplay:10.37,2013-06-09 18:50:00,
2013-06-09 14:00:00,83.8,71.2,29.82,South,187,6.0,9.0,66,0.00,BKN,,0.03,0.0,WeatherDisplay:10.37,2013-06-09 19:00:00,
2013-06-09 14:10:00,84.1,71.9,29.81,SSW,206,5.0,9.0,67,0.00,BKN,,0.03,0.0,WeatherDisplay:10.37,2013-06-09 19:10:00,
2013-06-09 14:20:00,84.2,71.2,29.81,SW,218,3.0,12.0,65,0.00,BKN,,0.03,0.0,WeatherDisplay:10.37,2013-06-09 19:20:00,
2013-06-09 14:30:00,84.9,70.9,29.81,SSW,193,5.0,10.0,63,0.00,SCT,,0.03,0.0,WeatherDisplay:10.37,2013-06-09 19:30:00,
2013-06-09 14:40:00,85.0,72.0,29.81,SSW,205,3.0,8.0,65,0.00,SCT,,0.03,0.0,WeatherDisplay:10.37,2013-06-09 19:40:00,
2013-06-09 14:50:00,84.3,69.9,29.80,SSW,213,3.0,8.0,62,0.00,BKN,,0.03,0.0,WeatherDisplay:10.37,2013-06-09 19:50:00,
2013-06-09 15:00:00,83.0,69.1,29.81,SW,230,6.0,9.0,63,0.00,BKN,,0.03,0.0,WeatherDisplay:10.37,2013-06-09 20:00:00,
2013-06-09 15:10:00,81.1,68.6,29.81,West,261,1.0,7.0,66,0.00,OVC,,0.03,0.0,WeatherDisplay:10.37,2013-06-09 20:10:00,
2013-06-09 15:20:00,79.9,69.3,29.81,WSW,246,2.0,5.0,70,0.01,RA,,0.04,0.0,WeatherDisplay:10.37,2013-06-09 20:20:00,
2013-06-09 15:30:00,76.0,69.4,29.82,WSW,244,3.0,14.0,80,0.09,RA,,0.13,0.0,WeatherDisplay:10.37,2013-06-09 20:30:00,
2013-06-09 15:40:00,73.4,69.7,29.80,WNW,286,1.0,13.0,88,0.03,RA,,0.16,0.0,WeatherDisplay:10.37,2013-06-09 20:40:00,
2013-06-09 15:50:00,74.0,70.2,29.82,WSW,254,0.0,5.0,88,0.00,BKN,,0.16,0.0,WeatherDisplay:10.37,2013-06-09 20:50:00,
2013-06-09 16:00:00,73.8,70.3,29.82,SW,230,1.0,5.0,89,0.00,BKN,,0.16,0.0,WeatherDisplay:10.37,2013-06-09 21:00:00,
2013-06-09 16:10:00,74.6,70.8,29.81,SE,124,1.0,3.0,88,0.00,SCT,,0.16,0.0,WeatherDisplay:10.37,2013-06-09 21:10:00,
2013-06-09 16:20:00,75.7,70.2,29.81,SSW,207,1.0,4.0,83,0.00,SCT,,0.16,0.0,WeatherDisplay:10.37,2013-06-09 21:20:00,
2013-06-09 16:30:00,77.2,70.9,29.81,SSW,197,2.0,7.0,81,0.00,BKN,,0.16,0.0,WeatherDisplay:10.37,2013-06-09 21:30:00,
2013-06-09 16:40:00,78.1,70.7,29.80,West,268,1.0,3.0,78,0.00,BKN,,0.16,0.0,WeatherDisplay:10.37,2013-06-09 21:40:00,
2013-06-09 16:50:00,77.6,70.2,29.80,WNW,302,2.0,5.0,78,0.00,BKN,,0.16,0.0,WeatherDisplay:10.37,2013-06-09 21:50:00,
2013-06-09 17:00:00,77.4,70.0,29.80,NW,311,1.0,5.0,78,0.00,BKN,,0.16,0.0,WeatherDisplay:10.37,2013-06-09 22:00:00,
2013-06-09 17:10:00,78.3,70.9,29.79,NW,315,1.0,4.0,78,0.00,FEW,,0.16,0.0,WeatherDisplay:10.37,2013-06-09 22:10:00,
2013-06-09 17:20:00,79.6,71.8,29.79,NE,48,1.0,2.0,77,0.00,FEW,,0.16,0.0,WeatherDisplay:10.37,2013-06-09 22:20:00,
2013-06-09 17:30:00,79.7,71.1,29.79,NE,49,0.0,2.0,75,0.00,SCT,,0.16,0.0,WeatherDisplay:10.37,2013-06-09 22:30:00,
2013-06-09 17:40:00,79.7,71.5,29.79,South,186,0.0,2.0,76,0.00,SCT,,0.16,0.0,WeatherDisplay:10.37,2013-06-09 22:40:00,
2013-06-09 17:50:00,79.0,71.5,29.79,SSE,155,0.0,1.0,78,0.00,BKN,,0.16,0.0,WeatherDisplay:10.37,2013-06-09 22:50:00,
2013-06-09 18:00:00,78.1,71.4,29.79,WSW,257,1.0,3.0,80,0.00,BKN,,0.16,0.0,WeatherDisplay:10.37,2013-06-09 23:00:00,
2013-06-09 18:10:00,74.0,65.6,29.80,West,264,3.0,16.0,75,0.04,RA,,0.20,0.0,WeatherDisplay:10.37,2013-06-09 23:10:00,
2013-06-09 18:20:00,71.5,65.4,29.80,West,268,2.0,7.0,81,0.02,RA,,0.22,0.0,WeatherDisplay:10.37,2013-06-09 23:20:00,
2013-06-09 18:30:00,70.8,66.1,29.82,WSW,241,3.0,8.0,85,0.00,BKN,,0.22,0.0,WeatherDisplay:10.37,2013-06-09 23:30:00,
2013-06-09 18:40:00,70.1,66.1,29.81,WSW,243,0.0,7.0,87,0.02,RA,,0.24,0.0,WeatherDisplay:10.37,2013-06-09 23:40:00,
2013-06-09 18:50:00,70.0,66.6,29.81,South,177,0.0,1.0,89,0.02,RA,,0.26,0.0,WeatherDisplay:10.37,2013-06-09 23:50:00,
2013-06-09 19:00:00,69.9,67.2,29.80,South,190,0.0,1.0,91,0.00,BKN,,0.26,0.0,WeatherDisplay:10.37,2013-06-10 00:00:00,
2013-06-09 19:10:00,70.1,67.3,29.80,SE,130,0.0,1.0,91,0.00,OVC,,0.26,0.0,WeatherDisplay:10.37,2013-06-10 00:10:00,
2013-06-09 19:20:00,70.2,67.4,29.79,SE,124,0.0,1.0,91,0.00,OVC,,0.26,0.0,WeatherDisplay:10.37,2013-06-10 00:20:00,
2013-06-09 19:30:00,70.4,68.0,29.79,ENE,62,0.0,2.0,92,0.00,OVC,,0.26,0.0,WeatherDisplay:10.37,2013-06-10 00:30:00,
2013-06-09 19:40:00,70.4,68.3,29.79,ENE,72,0.0,2.0,93,0.00,OVC,,0.26,0.0,WeatherDisplay:10.37,2013-06-10 00:40:00,
2013-06-09 19:50:00,70.2,68.1,29.81,South,172,1.0,1.0,93,0.01,RA,,0.27,0.0,WeatherDisplay:10.37,2013-06-10 00:50:00,
2013-06-09 20:00:00,70.1,68.0,29.80,SE,128,1.0,5.0,93,0.01,RA,,0.28,0.0,WeatherDisplay:10.37,2013-06-10 01:00:00,
2013-06-09 20:10:00,69.9,68.1,29.79,ESE,112,0.0,4.0,94,0.01,RA,,0.29,0.0,WeatherDisplay:10.37,2013-06-10 01:10:00,
2013-06-09 20:20:00,69.7,67.9,29.79,South,188,0.0,3.0,94,0.00,OVC,,0.29,0.0,WeatherDisplay:10.37,2013-06-10 01:20:00,
2013-06-09 20:30:00,69.6,67.8,29.80,South,189,1.0,2.0,94,0.00,OVC,,0.29,0.0,WeatherDisplay:10.37,2013-06-10 01:30:00,
2013-06-09 20:40:00,69.5,67.7,29.81,SSE,149,1.0,3.0,94,0.00,OVC,,0.29,0.0,WeatherDisplay:10.37,2013-06-10 01:40:00,
2013-06-09 20:50:00,69.3,67.5,29.81,SSE,147,1.0,3.0,94,0.00,OVC,,0.29,0.0,WeatherDisplay:10.37,2013-06-10 01:50:00,
2013-06-09 21:00:00,68.9,66.5,29.81,SSW,199,2.0,4.0,92,0.00,OVC,,0.29,0.0,WeatherDisplay:10.37,2013-06-10 02:00:00,
2013-06-09 21:10:00,68.5,66.1,29.81,South,188,2.0,9.0,92,0.00,OVC,,0.29,0.0,WeatherDisplay:10.37,2013-06-10 02:10:00,
2013-06-09 21:20:00,68.3,65.9,29.81,SSE,164,2.0,7.0,92,0.00,OVC,,0.29,0.0,WeatherDisplay:10.37,2013-06-10 02:20:00,
2013-06-09 21:30:00,68.1,65.7,29.81,South,173,1.0,5.0,92,0.00,OVC,,0.29,0.0,WeatherDisplay:10.37,2013-06-10 02:30:00,
2013-06-09 21:40:00,68.0,65.9,29.82,SE,141,0.0,3.0,93,0.00,FEW,,0.29,0.0,WeatherDisplay:10.37,2013-06-10 02:40:00,
2013-06-09 21:50:00,68.0,66.2,29.82,SE,132,1.0,2.0,94,0.00,FEW,,0.29,0.0,WeatherDisplay:10.37,2013-06-10 02:50:00,
2013-06-09 22:00:00,67.9,66.1,29.82,SSW,192,0.0,3.0,94,0.00,FEW,,0.29,0.0,WeatherDisplay:10.37,2013-06-10 03:00:00,
2013-06-09 22:10:00,67.7,65.9,29.83,SE,143,1.0,4.0,94,0.00,FEW,,0.29,0.0,WeatherDisplay:10.37,2013-06-10 03:10:00,
2013-06-09 22:20:00,67.5,65.7,29.84,South,172,0.0,2.0,94,0.00,FEW,,0.29,0.0,WeatherDisplay:10.37,2013-06-10 03:20:00,
2013-06-09 22:30:00,67.5,66.0,29.84,SSE,159,0.0,4.0,95,0.00,FEW,,0.29,0.0,WeatherDisplay:10.37,2013-06-10 03:30:00,
2013-06-09 22:40:00,67.3,65.5,29.84,SE,143,1.0,3.0,94,0.00,FEW,,0.29,0.0,WeatherDisplay:10.37,2013-06-10 03:40:00,
2013-06-09 22:50:00,67.0,65.3,29.84,SE,145,0.0,2.0,94,0.00,FEW,,0.29,0.0,WeatherDisplay:10.37,2013-06-10 03:50:00,
2013-06-09 23:00:00,66.8,65.3,29.84,SSE,152,0.0,1.0,95,0.00,SCT,,0.29,0.0,WeatherDisplay:10.37,2013-06-10 04:00:00,
2013-06-09 23:10:00,66.7,65.2,29.84,SSE,149,0.0,0.0,95,0.00,SCT,,0.29,0.0,WeatherDisplay:10.37,2013-06-10 04:10:00,
2013-06-09 23:20:00,66.6,65.1,29.84,SSE,149,0.0,0.0,95,0.00,SCT,,0.29,0.0,WeatherDisplay:10.37,2013-06-10 04:20:00,
2013-06-09 23:30:00,66.8,65.6,29.84,South,180,1.0,2.0,96,0.00,SCT,,0.29,0.0,WeatherDisplay:10.37,2013-06-10 04:30:00,
2013-06-09 23:40:00,66.8,65.3,29.84,South,183,0.0,2.0,95,0.00,OVC,,0.29,0.0,WeatherDisplay:10.37,2013-06-10 04:40:00,
2013-06-09 23:50:00,66.8,65.3,29.84,SSW,198,0.0,2.0,95,0.00,OVC,,0.29,0.0,WeatherDisplay:10.37,2013-06-10 04:50:00,